Time;durP1;ratioP1;P1;durP2;ratioP2;P2;SDS_P1;SDS_P2;PMS_P1;PMS_P2;Temp;Humidity;BMP_temperature;BMP_pressure;BME280_temperature;BME280_humidity;BME280_pressure;Samples;Min_cycle;Max_cycle;Signal;HPM_P1;HPM_P2
2022/01/21 00:01:09;;;;;;;6.63;2.87;;;3.60;99.90;;;;;;5053175;28;20271;-53
2022/01/21 00:03:36;;;;;;;7.83;2.67;;;3.70;99.90;;;;;;5053208;28;20206;-54
2022/01/21 00:06:06;;;;;;;9.33;2.87;;;3.80;99.90;;;;;;5052609;28;20664;-53
2022/01/21 00:08:33;;;;;;;11.03;3.00;;;3.90;99.90;;;;;;5052983;28;20326;-53
2022/01/21 00:10:59;;;;;;;7.30;2.90;;;3.90;99.90;;;;;;5052763;28;20205;-55
2022/01/21 00:13:33;;;;;;;6.87;2.33;;;4.00;99.90;;;;;;5052623;28;20201;-55
2022/01/21 00:16:02;;;;;;;7.30;2.73;;;3.90;99.90;;;;;;5052594;28;20704;-54
2022/01/21 00:18:29;;;;;;;11.03;4.10;;;3.90;99.90;;;;;;5052727;28;20213;-54
2022/01/21 00:31:53;;;;;;;6.33;2.33;;;3.40;99.90;;;;;;5052460;28;20254;-55
2022/01/21 00:34:20;;;;;;;7.80;3.03;;;3.20;99.90;;;;;;5051995;28;20226;-53
2022/01/21 00:36:47;;;;;;;9.17;3.30;;;3.10;99.90;;;;;;5052493;28;20209;-54
2022/01/21 00:39:14;;;;;;;7.00;3.30;;;3.00;99.90;;;;;;5052278;28;20716;-53
2022/01/21 00:41:51;;;;;;;9.57;3.50;;;3.00;99.90;;;;;;5052377;28;20230;-53
2022/01/21 00:44:18;;;;;;;6.20;3.23;;;3.00;99.90;;;;;;5052037;28;20343;-54
2022/01/21 00:46:45;;;;;;;8.17;2.97;;;3.10;99.90;;;;;;5052054;28;20205;-54
2022/01/21 00:49:13;;;;;;;8.20;2.83;;;3.10;99.90;;;;;;5052300;28;20202;-53
2022/01/21 00:51:39;;;;;;;7.83;2.70;;;3.20;99.90;;;;;;5052024;28;20556;-55
2022/01/21 00:54:06;;;;;;;9.47;2.90;;;3.20;99.90;;;;;;5052041;28;20507;-53
2022/01/21 00:56:33;;;;;;;7.67;2.80;;;3.30;99.90;;;;;;5051606;28;20205;-53
2022/01/21 00:58:59;;;;;;;9.33;3.07;;;3.30;99.90;;;;;;5052212;28;20217;-54
2022/01/21 01:01:26;;;;;;;13.53;2.77;;;3.40;99.90;;;;;;5051884;28;20221;-54
2022/01/21 01:03:53;;;;;;;7.80;2.60;;;3.40;99.90;;;;;;5051639;28;20639;-55
2022/01/21 01:06:21;;;;;;;7.73;2.70;;;3.50;99.90;;;;;;5051955;28;20734;-54
2022/01/21 01:08:50;;;;;;;5.77;2.77;;;3.60;99.90;;;;;;5052117;28;20719;-54
2022/01/21 01:11:28;;;;;;;14.43;2.90;;;3.60;99.90;;;;;;5051982;28;20236;-55
2022/01/21 01:22:09;;;;;;;7.27;2.70;;;3.60;99.90;;;;;;5051833;28;20228;-53
2022/01/21 01:27:37;;;;;;;10.97;3.00;;;3.60;99.90;;;;;;5052050;28;20208;-52
2022/01/21 01:30:05;;;;;;;8.13;3.17;;;3.50;99.90;;;;;;5051772;28;20236;-52
2022/01/21 01:32:33;;;;;;;8.57;2.87;;;3.50;99.90;;;;;;5051476;28;20205;-53
2022/01/21 01:34:59;;;;;;;10.47;4.03;;;3.40;99.90;;;;;;5051737;28;20264;-53
2022/01/21 01:37:39;;;;;;;6.93;2.83;;;3.30;99.90;;;;;;5052012;28;20240;-53
2022/01/21 01:40:20;;;;;;;9.33;2.50;;;3.20;99.90;;;;;;5051723;28;20205;-52
2022/01/21 01:50:59;;;;;;;10.57;2.70;;;3.30;99.90;;;;;;5051533;28;20243;-52
2022/01/21 01:53:32;;;;;;;7.43;2.60;;;3.50;99.90;;;;;;5051149;28;20252;-52
2022/01/21 01:55:59;;;;;;;8.73;2.40;;;3.50;99.90;;;;;;5051514;28;20240;-53
2022/01/21 01:58:26;;;;;;;9.70;2.87;;;3.60;99.90;;;;;;5051618;28;20260;-53
2022/01/21 02:00:56;;;;;;;7.63;2.57;;;3.60;99.90;;;;;;5051568;28;20256;-52
2022/01/21 02:03:23;;;;;;;5.20;2.50;;;3.60;99.90;;;;;;5051437;28;20684;-52
2022/01/21 02:05:50;;;;;;;8.30;2.67;;;3.70;99.90;;;;;;5051443;28;20631;-52
2022/01/21 02:08:17;;;;;;;8.10;2.40;;;3.70;99.90;;;;;;5052301;28;20212;-52
2022/01/21 02:10:45;;;;;;;6.77;2.60;;;3.70;99.90;;;;;;5055258;28;20210;-52
2022/01/21 02:13:23;;;;;;;8.27;2.47;;;3.60;99.90;;;;;;5054802;28;20665;-52
2022/01/21 02:16:04;;;;;;;6.13;2.50;;;3.60;99.90;;;;;;5054811;28;20735;-52
2022/01/21 02:21:33;;;;;;;9.17;2.50;;;3.60;99.90;;;;;;5054956;28;20224;-52
2022/01/21 02:24:02;;;;;;;9.73;2.93;;;3.60;99.90;;;;;;5054780;28;20634;-52
2022/01/21 02:26:29;;;;;;;5.77;2.13;;;3.40;99.90;;;;;;5054654;28;20210;-53
2022/01/21 02:28:58;;;;;;;6.73;2.70;;;3.30;99.90;;;;;;5054680;28;20208;-52
2022/01/21 02:31:25;;;;;;;9.07;2.50;;;3.20;99.90;;;;;;5054824;28;20206;-53
2022/01/21 02:33:51;;;;;;;6.47;2.80;;;3.10;99.90;;;;;;5054375;28;20213;-53
2022/01/21 02:36:18;;;;;;;6.67;2.63;;;3.10;99.90;;;;;;5054516;28;20209;-52
2022/01/21 02:38:46;;;;;;;9.27;3.10;;;3.10;99.90;;;;;;5054695;28;20340;-53
2022/01/21 02:41:13;;;;;;;8.57;3.40;;;3.10;99.90;;;;;;5054467;28;20682;-53
2022/01/21 02:43:40;;;;;;;8.87;3.20;;;3.20;99.90;;;;;;5054274;28;20205;-52
2022/01/21 02:46:09;;;;;;;10.83;3.00;;;3.20;99.90;;;;;;5054664;28;20226;-53
2022/01/21 02:48:37;;;;;;;6.33;2.77;;;3.30;99.90;;;;;;5054669;28;20205;-53
2022/01/21 02:51:07;;;;;;;8.10;2.77;;;3.30;99.90;;;;;;5054348;28;20304;-52
2022/01/21 02:54:04;;;;;;;10.27;3.10;;;3.40;99.90;;;;;;5054318;28;20240;-54
2022/01/21 02:56:32;;;;;;;13.27;3.27;;;3.50;99.90;;;;;;5054323;28;20264;-52
2022/01/21 02:58:59;;;;;;;13.77;3.03;;;3.50;99.90;;;;;;5054061;28;20712;-52
2022/01/21 03:01:26;;;;;;;6.27;2.67;;;3.60;99.90;;;;;;5053947;28;20687;-53
2022/01/21 03:03:53;;;;;;;9.23;2.80;;;3.70;99.90;;;;;;5053531;28;20256;-52
2022/01/21 03:06:23;;;;;;;6.93;2.93;;;3.70;99.90;;;;;;5054572;28;20336;-52
2022/01/21 03:08:52;;;;;;;8.03;2.50;;;3.70;99.90;;;;;;5053911;28;20692;-54
2022/01/21 03:11:20;;;;;;;5.63;2.43;;;3.80;99.90;;;;;;5054016;28;20236;-53
2022/01/21 03:13:48;;;;;;;6.13;2.60;;;3.80;99.90;;;;;;5053724;28;20214;-52
2022/01/21 03:16:15;;;;;;;8.07;2.60;;;3.80;99.90;;;;;;5053772;28;20213;-52
2022/01/21 03:18:42;;;;;;;6.97;2.77;;;3.80;99.90;;;;;;5053711;28;20216;-52
2022/01/21 03:21:10;;;;;;;7.07;2.63;;;3.80;99.90;;;;;;5053739;28;20202;-53
2022/01/21 03:23:38;;;;;;;4.70;2.47;;;3.80;99.90;;;;;;5053676;28;20221;-53
2022/01/21 03:26:04;;;;;;;8.17;2.57;;;3.80;99.90;;;;;;5053505;28;20760;-53
2022/01/21 03:28:31;;;;;;;9.23;2.87;;;3.70;99.90;;;;;;5053762;28;20231;-53
2022/01/21 03:30:59;;;;;;;12.77;2.60;;;3.60;99.90;;;;;;5053422;28;20374;-54
2022/01/21 03:33:26;;;;;;;7.23;2.57;;;3.50;99.90;;;;;;5053215;28;20225;-54
2022/01/21 03:35:54;;;;;;;7.47;2.30;;;3.50;99.90;;;;;;5053596;28;20303;-53
2022/01/21 03:38:24;;;;;;;9.67;2.70;;;3.50;99.90;;;;;;5053270;28;20750;-53
2022/01/21 03:40:51;;;;;;;11.73;2.93;;;3.40;99.90;;;;;;5053684;28;20666;-53
2022/01/21 03:43:18;;;;;;;8.83;2.70;;;3.30;99.90;;;;;;5053023;28;20296;-52
2022/01/21 03:45:45;;;;;;;6.23;2.13;;;3.40;99.90;;;;;;5053220;28;20237;-52
2022/01/21 03:48:13;;;;;;;9.73;2.80;;;3.40;99.90;;;;;;5053342;28;20202;-53
2022/01/21 03:50:40;;;;;;;7.87;2.80;;;3.40;99.90;;;;;;5053149;28;20669;-52
2022/01/21 03:53:06;;;;;;;6.77;2.20;;;3.50;99.90;;;;;;5052914;28;20561;-52
2022/01/21 03:55:34;;;;;;;6.27;2.30;;;3.40;99.90;;;;;;5053163;28;20229;-53
2022/01/21 03:58:02;;;;;;;8.73;2.73;;;3.30;99.90;;;;;;5053115;28;20213;-54
2022/01/21 04:00:31;;;;;;;6.03;2.33;;;3.30;99.90;;;;;;5052935;28;20202;-52
2022/01/21 04:02:58;;;;;;;7.83;3.53;;;3.20;99.90;;;;;;5052739;28;20229;-53
2022/01/21 04:05:26;;;;;;;8.20;2.30;;;3.20;99.90;;;;;;5052754;28;20251;-53
2022/01/21 04:07:53;;;;;;;9.33;2.70;;;3.10;99.90;;;;;;5052907;28;20214;-53
2022/01/21 04:10:20;;;;;;;11.10;3.00;;;3.30;99.90;;;;;;5052859;28;20205;-53
2022/01/21 04:12:47;;;;;;;7.07;2.73;;;3.30;99.90;;;;;;5052524;28;20202;-53
2022/01/21 04:15:14;;;;;;;6.27;2.57;;;3.50;99.90;;;;;;5052410;28;20744;-54
2022/01/21 04:17:41;;;;;;;7.53;2.60;;;3.50;99.90;;;;;;5052751;28;20237;-53
2022/01/21 04:20:10;;;;;;;8.00;2.60;;;3.60;99.90;;;;;;5052642;28;20206;-53
2022/01/21 04:22:38;;;;;;;10.93;2.87;;;3.50;99.90;;;;;;5052341;28;20230;-53
2022/01/21 04:25:07;;;;;;;7.10;2.73;;;3.60;99.90;;;;;;5052456;28;20234;-53
2022/01/21 04:27:33;;;;;;;10.73;3.07;;;3.60;99.90;;;;;;5052409;28;20209;-54
2022/01/21 04:30:00;;;;;;;7.30;2.60;;;3.60;99.90;;;;;;5052496;28;20209;-54
2022/01/21 04:32:27;;;;;;;7.40;3.13;;;3.60;99.90;;;;;;5051975;28;20209;-53
2022/01/21 04:34:53;;;;;;;8.47;2.80;;;3.50;99.90;;;;;;5052192;28;20229;-54
2022/01/21 04:37:20;;;;;;;7.77;3.23;;;3.50;99.90;;;;;;5052399;28;20210;-53
2022/01/21 04:39:54;;;;;;;11.33;2.80;;;3.40;99.90;;;;;;5052573;28;20300;-53
2022/01/21 04:47:52;;;;;;;6.47;3.20;;;3.40;99.90;;;;;;5052309;28;20683;-54
2022/01/21 04:50:19;;;;;;;10.70;3.10;;;3.30;99.90;;;;;;5052190;28;20216;-54
2022/01/21 04:52:46;;;;;;;9.57;3.30;;;3.20;99.90;;;;;;5051763;28;20205;-54
2022/01/21 04:55:15;;;;;;;10.90;2.90;;;3.20;99.90;;;;;;5052060;28;20225;-54
2022/01/21 04:57:42;;;;;;;9.87;3.73;;;3.10;99.90;;;;;;5052220;28;20244;-54
2022/01/21 05:00:09;;;;;;;8.13;3.30;;;3.00;99.90;;;;;;5051908;28;20210;-55
2022/01/21 05:02:37;;;;;;;11.03;3.60;;;2.90;99.90;;;;;;5052003;28;20234;-53
2022/01/21 05:05:05;;;;;;;9.40;3.33;;;2.80;99.90;;;;;;5052394;28;20244;-56
2022/01/21 05:07:35;;;;;;;10.10;3.00;;;2.80;99.90;;;;;;5052237;28;20264;-57
2022/01/21 05:10:03;;;;;;;7.23;3.20;;;2.80;99.90;;;;;;5052238;28;20209;-56
2022/01/21 05:12:31;;;;;;;8.93;2.90;;;2.90;99.90;;;;;;5051968;28;20588;-57
2022/01/21 05:17:49;;;;;;;10.50;3.43;;;3.10;99.90;;;;;;5046788;28;20280;-55
2022/01/21 05:20:17;;;;;;;12.97;3.57;;;3.20;99.90;;;;;;5052593;28;20271;-55
2022/01/21 05:22:44;;;;;;;8.23;3.23;;;3.30;99.90;;;;;;5051881;28;20233;-55
2022/01/21 05:25:16;;;;;;;10.33;4.30;;;3.30;99.90;;;;;;5051943;28;20230;-56
2022/01/21 05:27:46;;;;;;;9.77;3.47;;;3.40;99.90;;;;;;5052514;28;20225;-55
2022/01/21 05:30:13;;;;;;;10.60;3.07;;;3.50;99.90;;;;;;5051741;28;20202;-58
2022/01/21 05:32:40;;;;;;;6.43;3.03;;;3.50;99.90;;;;;;5051848;28;20213;-57
2022/01/21 05:35:08;;;;;;;11.10;3.87;;;3.50;99.90;;;;;;5051749;28;20226;-58
2022/01/21 05:37:35;;;;;;;10.13;4.50;;;3.60;99.90;;;;;;5051688;28;20233;-57
2022/01/21 05:40:02;;;;;;;9.60;3.67;;;3.60;99.90;;;;;;5051559;28;20212;-57
2022/01/21 05:42:28;;;;;;;11.83;3.57;;;3.60;99.90;;;;;;5052617;28;20225;-57
2022/01/21 05:47:40;;;;;;;12.37;5.43;;;3.70;99.90;;;;;;5055692;28;20284;-57
2022/01/21 05:50:08;;;;;;;18.43;7.87;;;3.70;99.90;;;;;;5055625;28;20209;-57
2022/01/21 05:52:39;;;;;;;9.63;4.73;;;3.70;99.90;;;;;;5055334;28;20259;-57
2022/01/21 05:55:05;;;;;;;16.37;5.33;;;3.70;99.90;;;;;;5055203;28;20229;-58
2022/01/21 05:57:32;;;;;;;8.00;3.73;;;3.70;99.90;;;;;;5055365;28;20205;-57
2022/01/21 06:00:00;;;;;;;14.83;7.33;;;3.70;99.90;;;;;;5055474;28;20212;-58
2022/01/21 06:02:27;;;;;;;10.43;3.50;;;3.80;99.90;;;;;;5055060;28;20237;-58
2022/01/21 06:04:55;;;;;;;15.80;7.80;;;3.80;99.90;;;;;;5055057;28;20469;-58
2022/01/21 06:07:22;;;;;;;8.00;3.60;;;3.70;99.90;;;;;;5055143;28;20208;-57
2022/01/21 06:09:49;;;;;;;10.03;3.63;;;3.70;99.90;;;;;;5054932;28;20255;-56
2022/01/21 06:12:15;;;;;;;14.70;5.93;;;3.80;99.90;;;;;;5055190;28;20205;-56
2022/01/21 06:14:42;;;;;;;25.83;17.43;;;3.80;99.90;;;;;;5054606;28;20248;-55
2022/01/21 06:17:12;;;;;;;10.87;5.20;;;3.80;99.90;;;;;;5054514;28;20670;-57
2022/01/21 06:19:39;;;;;;;14.73;5.90;;;3.90;99.90;;;;;;5054890;28;20209;-56
2022/01/21 06:22:06;;;;;;;8.63;4.10;;;4.00;99.90;;;;;;5054692;28;20537;-57
2022/01/21 06:24:33;;;;;;;8.20;3.97;;;4.00;99.90;;;;;;5054249;28;20233;-57
2022/01/21 06:27:02;;;;;;;10.97;3.70;;;4.00;99.90;;;;;;5054773;28;20212;-57
2022/01/21 06:29:29;;;;;;;11.30;5.10;;;4.00;99.90;;;;;;5054726;28;20209;-56
2022/01/21 06:31:56;;;;;;;13.90;4.70;;;4.10;99.90;;;;;;5054710;28;20734;-56
2022/01/21 06:34:24;;;;;;;11.80;5.17;;;4.10;99.90;;;;;;5054365;28;20225;-55
2022/01/21 06:36:51;;;;;;;8.90;4.13;;;4.10;99.90;;;;;;5054333;28;20205;-56
2022/01/21 06:39:17;;;;;;;15.13;6.07;;;4.20;99.90;;;;;;5054378;28;20213;-57
2022/01/21 06:41:46;;;;;;;10.33;4.27;;;4.20;99.90;;;;;;5054628;28;20232;-57
2022/01/21 06:44:13;;;;;;;13.90;4.33;;;4.20;99.90;;;;;;5054345;28;20356;-56
2022/01/21 06:46:40;;;;;;;9.83;5.20;;;4.20;99.90;;;;;;5054413;28;20242;-57
2022/01/21 06:49:07;;;;;;;11.40;4.57;;;4.20;99.90;;;;;;5054116;28;20206;-56
2022/01/21 06:51:35;;;;;;;10.47;4.17;;;4.20;99.90;;;;;;5054570;28;20205;-57
2022/01/21 06:54:02;;;;;;;10.67;4.30;;;4.30;99.90;;;;;;5053859;28;20666;-57
2022/01/21 06:56:30;;;;;;;21.23;8.53;;;4.30;99.90;;;;;;5054073;28;20589;-57
2022/01/21 06:58:57;;;;;;;11.03;4.87;;;4.40;99.90;;;;;;5054034;28;20620;-57
2022/01/21 07:01:24;;;;;;;14.60;4.30;;;4.40;99.90;;;;;;5053889;28;20209;-57
2022/01/21 07:03:50;;;;;;;11.47;4.67;;;4.40;99.90;;;;;;5053582;28;20229;-57
2022/01/21 07:06:17;;;;;;;12.23;4.57;;;4.40;99.90;;;;;;5053389;28;20695;-57
2022/01/21 07:08:45;;;;;;;10.17;4.30;;;4.30;99.90;;;;;;5053936;28;20202;-56
2022/01/21 07:11:12;;;;;;;12.73;4.60;;;4.40;99.90;;;;;;5053548;28;20586;-56
2022/01/21 07:13:39;;;;;;;10.73;4.43;;;4.40;99.90;;;;;;5053662;28;20205;-57
2022/01/21 07:16:06;;;;;;;9.53;3.80;;;4.40;99.90;;;;;;5053744;28;20229;-57
2022/01/21 07:18:32;;;;;;;9.97;4.30;;;4.40;99.90;;;;;;5054195;28;20666;-57
2022/01/21 07:20:59;;;;;;;13.40;4.80;;;4.40;99.90;;;;;;5053805;28;20205;-56
2022/01/21 07:23:26;;;;;;;12.30;4.80;;;4.40;99.90;;;;;;5053335;28;20222;-56
2022/01/21 07:25:54;;;;;;;11.43;4.63;;;4.30;99.90;;;;;;5053549;28;20228;-56
2022/01/21 07:28:21;;;;;;;11.50;4.33;;;4.30;99.90;;;;;;5053792;28;20209;-56
2022/01/21 07:30:48;;;;;;;17.77;6.30;;;4.30;99.90;;;;;;5053420;28;20217;-56
2022/01/21 07:33:15;;;;;;;30.03;17.20;;;4.30;99.90;;;;;;5053178;28;20692;-57
2022/01/21 07:35:42;;;;;;;10.13;4.93;;;4.20;99.90;;;;;;5053247;28;20257;-57
2022/01/21 07:38:08;;;;;;;14.47;5.40;;;4.20;99.90;;;;;;5053449;28;20213;-56
2022/01/21 07:40:35;;;;;;;12.70;5.53;;;4.30;99.90;;;;;;5053485;28;20216;-57
2022/01/21 07:43:03;;;;;;;19.63;6.77;;;4.40;99.90;;;;;;5052971;28;20269;-58
2022/01/21 07:45:30;;;;;;;12.10;5.30;;;4.50;99.90;;;;;;5052833;28;20222;-57
2022/01/21 07:47:57;;;;;;;18.20;5.73;;;4.60;99.90;;;;;;5053381;28;20205;-57
2022/01/21 07:50:24;;;;;;;14.33;5.03;;;4.60;99.90;;;;;;5053419;28;20205;-57
2022/01/21 07:52:50;;;;;;;16.37;5.17;;;4.60;99.90;;;;;;5053219;28;20731;-56
2022/01/21 07:55:17;;;;;;;13.30;5.73;;;4.60;99.90;;;;;;5053101;28;20233;-57
2022/01/21 07:57:44;;;;;;;14.17;5.10;;;4.60;99.90;;;;;;5053625;28;20210;-57
2022/01/21 08:00:13;;;;;;;20.50;9.80;;;4.70;99.90;;;;;;5053007;28;20209;-57
2022/01/21 08:02:40;;;;;;;10.70;4.23;;;4.80;99.90;;;;;;5053222;28;20201;-57
2022/01/21 08:05:08;;;;;;;7.60;4.23;;;4.80;99.90;;;;;;5052538;28;20233;-57
2022/01/21 08:07:34;;;;;;;12.63;7.20;;;4.90;99.90;;;;;;5052082;28;20205;-57
2022/01/21 08:10:01;;;;;;;16.47;6.37;;;4.80;99.90;;;;;;5052980;28;20681;-57
2022/01/21 08:12:28;;;;;;;12.03;5.17;;;4.90;99.90;;;;;;5052732;28;20221;-56
2022/01/21 08:14:54;;;;;;;10.63;4.80;;;4.90;99.90;;;;;;5052552;28;20225;-60
2022/01/21 08:17:23;;;;;;;16.47;6.13;;;5.00;99.90;;;;;;5052721;28;20565;-55
2022/01/21 08:19:50;;;;;;;9.20;4.33;;;5.10;99.90;;;;;;5052785;28;20212;-59
2022/01/21 08:22:16;;;;;;;11.23;4.43;;;5.10;99.90;;;;;;5052721;28;20208;-58
2022/01/21 08:24:43;;;;;;;16.80;7.80;;;5.10;99.90;;;;;;5052000;28;20233;-63
2022/01/21 08:27:10;;;;;;;11.23;4.50;;;5.20;99.90;;;;;;5052757;28;20214;-57
2022/01/21 08:29:36;;;;;;;14.03;4.63;;;5.20;99.90;;;;;;5052739;28;20212;-56
2022/01/21 08:32:04;;;;;;;13.20;5.00;;;5.20;99.90;;;;;;5052660;28;20213;-56
2022/01/21 08:34:34;;;;;;;10.07;4.20;;;5.30;99.90;;;;;;5052265;28;20226;-60
2022/01/21 08:37:01;;;;;;;10.57;5.07;;;5.30;99.90;;;;;;5052778;28;20669;-58
2022/01/21 08:39:28;;;;;;;7.73;4.33;;;5.30;99.90;;;;;;5052403;28;20205;-59
2022/01/21 08:41:55;;;;;;;9.83;4.63;;;5.30;99.90;;;;;;5052552;28;20217;-58
2022/01/21 08:44:22;;;;;;;11.37;5.17;;;5.40;99.90;;;;;;5052357;28;20237;-59
2022/01/21 08:46:49;;;;;;;10.00;5.23;;;5.40;99.90;;;;;;5052870;28;20201;-59
2022/01/21 08:49:19;;;;;;;15.17;4.70;;;5.40;99.90;;;;;;5052409;28;20202;-58
2022/01/21 08:51:51;;;;;;;10.40;4.20;;;5.40;99.90;;;;;;5052436;28;20211;-58
2022/01/21 08:54:19;;;;;;;15.93;4.57;;;5.50;99.90;;;;;;5051754;28;20724;-59
2022/01/21 08:56:47;;;;;;;19.20;6.47;;;5.60;99.90;;;;;;5052356;28;20210;-57
2022/01/21 08:59:14;;;;;;;13.53;5.00;;;5.50;99.90;;;;;;5052404;28;20217;-58
2022/01/21 09:01:41;;;;;;;10.53;4.43;;;5.50;99.90;;;;;;5052293;28;20205;-58
2022/01/21 09:04:08;;;;;;;14.70;4.67;;;5.60;99.90;;;;;;5051713;28;20487;-58
2022/01/21 09:06:34;;;;;;;11.07;4.37;;;5.70;99.90;;;;;;5052294;28;20216;-59
2022/01/21 09:09:04;;;;;;;8.13;4.67;;;5.70;99.90;;;;;;5051789;28;20254;-58
2022/01/21 09:11:31;;;;;;;11.43;4.50;;;5.70;99.90;;;;;;5052331;28;20271;-57
2022/01/21 09:13:59;;;;;;;11.43;5.60;;;5.80;99.90;;;;;;5051898;28;20205;-58
2022/01/21 09:16:26;;;;;;;10.20;5.07;;;5.90;99.90;;;;;;5051937;28;20205;-58
2022/01/21 09:18:55;;;;;;;16.80;4.60;;;5.90;99.90;;;;;;5055254;28;20217;-58
2022/01/21 09:21:24;;;;;;;8.13;4.30;;;6.10;99.90;;;;;;5055947;28;20208;-58
2022/01/21 09:23:51;;;;;;;8.90;4.20;;;6.30;99.90;;;;;;5055881;28;20257;-57
2022/01/21 09:26:20;;;;;;;11.13;4.30;;;6.40;99.90;;;;;;5056069;28;20263;-58
2022/01/21 09:28:47;;;;;;;11.03;4.87;;;6.50;99.90;;;;;;5055967;28;20217;-58
2022/01/21 09:31:14;;;;;;;8.17;4.70;;;6.70;99.90;;;;;;5055924;28;20685;-58
2022/01/21 09:33:41;;;;;;;8.87;4.37;;;6.80;99.90;;;;;;5056071;28;20216;-56
2022/01/21 09:36:09;;;;;;;9.23;4.10;;;6.80;99.90;;;;;;5055619;28;20639;-58
2022/01/21 09:38:36;;;;;;;10.53;4.33;;;6.80;99.90;;;;;;5055948;28;20205;-58
2022/01/21 09:41:03;;;;;;;11.93;4.63;;;6.90;99.90;;;;;;5055847;28;20202;-60
2022/01/21 09:43:33;;;;;;;10.17;4.30;;;6.90;99.90;;;;;;5055409;28;20205;-57
2022/01/21 09:46:05;;;;;;;12.90;4.60;;;7.00;99.90;;;;;;5055531;28;20772;-58
2022/01/21 09:48:37;;;;;;;9.80;4.50;;;7.10;99.90;;;;;;5055465;28;20213;-58
2022/01/21 09:51:06;;;;;;;10.33;4.10;;;7.20;99.90;;;;;;5055115;28;20575;-58
2022/01/21 09:53:35;;;;;;;13.30;4.50;;;7.10;99.90;;;;;;5055501;28;20205;-57
2022/01/21 09:56:05;;;;;;;12.77;5.13;;;7.20;99.90;;;;;;5056926;28;20233;-63
2022/01/21 09:58:34;;;;;;;13.40;4.40;;;7.20;99.90;;;;;;5056014;28;20205;-57
2022/01/21 10:01:05;;;;;;;12.20;4.53;;;7.20;99.90;;;;;;5056183;28;20232;-57
2022/01/21 10:03:32;;;;;;;7.53;4.20;;;7.10;99.90;;;;;;5055927;28;20209;-57
2022/01/21 10:06:01;;;;;;;11.83;5.10;;;7.10;99.90;;;;;;5055369;28;20276;-57
2022/01/21 10:08:30;;;;;;;15.53;4.23;;;6.80;99.90;;;;;;5055308;28;20255;-57
2022/01/21 10:10:57;;;;;;;13.23;4.43;;;6.70;99.90;;;;;;5055194;28;20208;-57
2022/01/21 10:13:24;;;;;;;11.77;4.37;;;6.50;99.90;;;;;;5054805;28;20249;-57
2022/01/21 10:15:52;;;;;;;15.63;7.40;;;6.20;99.90;;;;;;5055591;28;20221;-57
2022/01/21 10:18:21;;;;;;;9.10;4.90;;;6.00;99.90;;;;;;5055266;28;20657;-57
2022/01/21 10:20:58;;;;;;;11.70;3.80;;;5.90;99.90;;;;;;5055193;28;20201;-57
2022/01/21 10:23:26;;;;;;;8.10;3.90;;;6.00;99.90;;;;;;5054675;28;20738;-56
2022/01/21 10:25:59;;;;;;;9.10;3.50;;;5.90;99.90;;;;;;5054782;28;20257;-57
2022/01/21 10:28:26;;;;;;;9.37;3.77;;;5.90;99.90;;;;;;5054848;28;20205;-55
2022/01/21 10:31:07;;;;;;;11.80;4.43;;;5.90;99.90;;;;;;5054315;28;20216;-57
2022/01/21 10:33:39;;;;;;;10.50;4.77;;;6.00;99.90;;;;;;5054833;28;20212;-56
2022/01/21 10:36:08;;;;;;;12.63;3.97;;;6.00;99.90;;;;;;5054663;28;20275;-56
2022/01/21 10:38:41;;;;;;;8.77;3.97;;;6.20;99.90;;;;;;5054442;28;20324;-56
2022/01/21 10:41:11;;;;;;;11.80;4.07;;;6.40;99.90;;;;;;5055158;28;20202;-57
2022/01/21 10:43:38;;;;;;;12.27;4.57;;;6.40;99.90;;;;;;5054879;28;20212;-56
2022/01/21 10:46:07;;;;;;;9.63;3.97;;;6.50;99.90;;;;;;5055645;28;20590;-61
2022/01/21 10:48:58;;;;;;;8.90;4.03;;;6.80;99.90;;;;;;5056585;28;20263;-61
2022/01/21 10:51:26;;;;;;;11.97;5.80;;;7.00;99.90;;;;;;5054727;28;20292;-62
2022/01/21 10:53:53;;;;;;;13.83;4.40;;;7.00;99.90;;;;;;5051243;28;20201;-59
2022/01/21 10:56:21;;;;;;;8.13;3.90;;;7.10;99.90;;;;;;5054273;28;20210;-58
2022/01/21 10:58:51;;;;;;;9.07;4.07;;;7.20;99.90;;;;;;5054322;28;20209;-58
2022/01/21 11:01:23;;;;;;;10.33;4.87;;;7.40;99.90;;;;;;5053984;28;20288;-60
2022/01/21 11:04:01;;;;;;;7.87;3.90;;;7.60;99.90;;;;;;5053318;28;20205;-57
2022/01/21 11:06:36;;;;;;;12.93;5.03;;;7.70;99.90;;;;;;5077570;22;20241;-64
2022/01/21 11:09:18;;;;;;;12.30;4.07;;;7.80;99.90;;;;;;5054047;28;20197;-68
2022/01/21 11:11:46;;;;;;;14.77;5.27;;;7.90;99.90;;;;;;5053723;28;20217;-67
2022/01/21 11:14:14;;;;;;;12.70;5.60;;;8.00;99.90;;;;;;5053650;28;20699;-67
2022/01/21 11:16:45;;;;;;;10.73;4.23;;;8.00;99.90;;;;;;5053844;28;20229;-66
2022/01/21 11:19:23;;;;;;;10.50;3.70;;;8.20;99.90;;;;;;5053881;28;20205;-66
2022/01/21 11:21:54;;;;;;;13.17;4.27;;;8.20;99.90;;;;;;5053487;28;20685;-66
2022/01/21 11:24:22;;;;;;;12.43;3.83;;;8.20;99.90;;;;;;5053203;28;20225;-67
2022/01/21 11:27:08;;;;;;;14.07;4.97;;;8.20;99.90;;;;;;5053249;28;20210;-67
2022/01/21 11:29:35;;;;;;;11.20;4.40;;;8.10;99.90;;;;;;5053509;28;20201;-65
2022/01/21 11:32:04;;;;;;;9.27;4.07;;;8.10;99.90;;;;;;5053571;28;20914;-68
2022/01/21 11:34:32;;;;;;;11.67;4.10;;;8.00;99.90;;;;;;5053183;28;20202;-64
2022/01/21 11:37:00;;;;;;;11.17;4.17;;;8.00;99.90;;;;;;5053887;28;20575;-67
2022/01/21 11:39:27;;;;;;;10.17;4.07;;;8.00;99.90;;;;;;5055859;28;20245;-65
2022/01/21 11:41:56;;;;;;;11.50;3.90;;;7.80;99.90;;;;;;5057682;28;20577;-67
2022/01/21 11:44:25;;;;;;;10.43;4.17;;;7.70;99.90;;;;;;5059665;28;20233;-67
2022/01/21 11:47:13;;;;;;;10.30;4.37;;;7.40;99.90;;;;;;5047866;28;20288;-64
2022/01/21 11:49:43;;;;;;;10.53;4.30;;;7.40;99.90;;;;;;5053378;28;20205;-63
2022/01/21 11:52:19;;;;;;;11.57;4.27;;;7.60;99.90;;;;;;5053091;28;20214;-63
2022/01/21 11:54:46;;;;;;;11.40;4.03;;;7.80;99.90;;;;;;5052394;28;20304;-63
2022/01/21 11:57:15;;;;;;;11.23;4.13;;;7.70;99.90;;;;;;5052739;28;20202;-64
2022/01/21 11:59:52;;;;;;;8.77;3.80;;;7.70;99.90;;;;;;5052307;28;20209;-64
2022/01/21 12:02:22;;;;;;;13.73;3.70;;;7.60;99.90;;;;;;5052955;28;20213;-65
2022/01/21 12:04:52;;;;;;;9.63;3.40;;;7.40;99.90;;;;;;5051735;28;20229;-63
2022/01/21 12:07:45;;;;;;;8.73;3.67;;;7.50;99.90;;;;;;5052861;28;20233;-61
2022/01/21 12:10:14;;;;;;;12.67;4.43;;;7.50;99.90;;;;;;5052556;28;20661;-61
2022/01/21 12:13:01;;;;;;;9.67;4.90;;;7.40;99.90;;;;;;5052783;28;20685;-62
2022/01/21 12:15:53;;;;;;;11.67;4.20;;;7.30;99.90;;;;;;5052291;28;20221;-62
2022/01/21 12:18:38;;;;;;;13.03;5.37;;;7.30;99.90;;;;;;5052400;28;20205;-61
2022/01/21 12:21:27;;;;;;;11.43;3.63;;;7.40;99.90;;;;;;5052479;28;20227;-61
2022/01/21 12:23:55;;;;;;;13.00;4.93;;;7.60;99.90;;;;;;5052161;28;20555;-61
2022/01/21 12:26:23;;;;;;;13.33;4.20;;;7.70;99.90;;;;;;5052328;28;20237;-61
2022/01/21 12:29:23;;;;;;;10.87;3.73;;;7.80;99.90;;;;;;5052055;28;20334;-62
2022/01/21 12:31:59;;;;;;;8.37;3.43;;;7.80;99.90;;;;;;5052061;28;20633;-62
2022/01/21 12:34:27;;;;;;;12.77;4.07;;;7.80;99.90;;;;;;5051881;28;20206;-62
2022/01/21 12:36:57;;;;;;;11.37;4.80;;;7.80;99.90;;;;;;5052173;28;20213;-61
2022/01/21 12:39:41;;;;;;;12.20;4.70;;;7.90;99.90;;;;;;5052163;28;20209;-61
2022/01/21 12:42:35;;;;;;;16.67;8.80;;;8.00;99.90;;;;;;5052226;28;20703;-62
2022/01/21 12:45:23;;;;;;;18.90;7.77;;;8.00;99.90;;;;;;5051734;28;20737;-63
2022/01/21 12:47:50;;;;;;;9.57;4.40;;;8.10;99.90;;;;;;5051974;28;20304;-63
2022/01/21 12:50:27;;;;;;;9.20;3.20;;;8.10;99.90;;;;;;5052424;28;20217;-61
2022/01/21 12:53:08;;;;;;;11.50;4.07;;;8.10;99.90;;;;;;5051557;28;20201;-63
2022/01/21 12:58:22;;;;;;;11.93;5.20;;;7.80;99.90;;;;;;5052396;28;20204;-63
2022/01/21 13:00:55;;;;;;;10.13;4.90;;;7.70;99.90;;;;;;5052000;28;20216;-62
2022/01/21 13:03:25;;;;;;;9.00;3.47;;;7.70;99.90;;;;;;5051355;28;20209;-62
2022/01/21 13:06:00;;;;;;;7.63;2.77;;;7.70;99.90;;;;;;5051705;28;20233;-62
2022/01/21 13:08:36;;;;;;;9.37;3.57;;;7.80;99.90;;;;;;5051779;28;20204;-62
2022/01/21 13:11:16;;;;;;;7.60;2.83;;;7.80;99.90;;;;;;5051732;28;20205;-64
2022/01/21 13:13:50;;;;;;;11.43;3.53;;;7.70;99.90;;;;;;5051892;28;20684;-63
2022/01/21 13:16:25;;;;;;;13.90;7.60;;;7.50;99.90;;;;;;5052109;28;20719;-67
2022/01/21 13:19:00;;;;;;;9.77;3.83;;;7.50;99.90;;;;;;5052495;28;20288;-64
2022/01/21 13:21:27;;;;;;;8.57;2.87;;;7.40;99.90;;;;;;5052152;28;20258;-61
2022/01/21 13:23:57;;;;;;;9.67;3.57;;;7.30;99.90;;;;;;5051872;28;20217;-61
2022/01/21 13:26:28;;;;;;;11.63;3.37;;;7.30;99.90;;;;;;5051989;28;20229;-61
2022/01/21 13:28:56;;;;;;;12.40;3.73;;;7.30;99.90;;;;;;5051746;28;20205;-61
2022/01/21 13:31:23;;;;;;;10.07;3.50;;;7.30;99.90;;;;;;5051621;28;20590;-61
2022/01/21 13:33:51;;;;;;;11.60;4.03;;;7.20;99.90;;;;;;5051749;28;20209;-61
2022/01/21 13:36:35;;;;;;;11.87;3.20;;;7.20;99.90;;;;;;5051480;28;20320;-61
2022/01/21 13:39:10;;;;;;;12.93;4.80;;;7.10;99.90;;;;;;5051910;28;20673;-61
2022/01/21 13:41:47;;;;;;;17.57;8.73;;;7.10;99.90;;;;;;5051714;28;20204;-60
2022/01/21 13:44:23;;;;;;;10.10;3.33;;;7.10;99.90;;;;;;5046598;28;20217;-63
2022/01/21 13:46:49;;;;;;;9.87;4.70;;;7.10;99.90;;;;;;5031374;28;20226;-63
2022/01/21 13:49:21;;;;;;;12.73;4.53;;;7.20;99.90;;;;;;5031607;28;20216;-65